sensor_id;sensor_type;location;lat;lon;timestamp;P1;durP1;ratioP1;P2;durP2;ratioP2
68995;SDS011;56056;48.990;12.146;2023-11-21T00:01:39;1758.15;;;999.90;;
68995;SDS011;56056;48.990;12.146;2023-11-21T00:04:05;1875.22;;;999.90;;
68995;SDS011;56056;48.990;12.146;2023-11-21T00:06:32;1875.90;;;999.90;;
68995;SDS011;56056;48.990;12.146;2023-11-21T00:08:58;1888.93;;;999.90;;
68995;SDS011;56056;48.990;12.146;2023-11-21T00:11:24;1874.85;;;999.90;;
68995;SDS011;56056;48.990;12.146;2023-11-21T00:13:50;1868.47;;;999.90;;
68995;SDS011;56056;48.990;12.146;2023-11-21T00:16:17;1812.13;;;999.90;;
68995;SDS011;56056;48.990;12.146;2023-11-21T00:18:43;1940.85;;;999.90;;
68995;SDS011;56056;48.990;12.146;2023-11-21T00:21:11;1984.70;;;999.90;;
68995;SDS011;56056;48.990;12.146;2023-11-21T00:23:37;1999.90;;;999.90;;
68995;SDS011;56056;48.990;12.146;2023-11-21T00:26:03;1951.57;;;999.90;;
68995;SDS011;56056;48.990;12.146;2023-11-21T00:28:30;1949.40;;;999.90;;
68995;SDS011;56056;48.990;12.146;2023-11-21T00:30:56;1999.90;;;999.90;;
68995;SDS011;56056;48.990;12.146;2023-11-21T00:33:23;1999.90;;;999.90;;
68995;SDS011;56056;48.990;12.146;2023-11-21T00:35:50;1999.90;;;999.90;;
68995;SDS011;56056;48.990;12.146;2023-11-21T00:38:16;1999.90;;;999.90;;
68995;SDS011;56056;48.990;12.146;2023-11-21T00:40:45;1999.90;;;999.90;;
68995;SDS011;56056;48.990;12.146;2023-11-21T00:43:10;1999.90;;;999.90;;
68995;SDS011;56056;48.990;12.146;2023-11-21T00:45:36;1999.90;;;999.90;;
68995;SDS011;56056;48.990;12.146;2023-11-21T00:48:02;1999.90;;;999.90;;
68995;SDS011;56056;48.990;12.146;2023-11-21T00:50:31;1999.90;;;999.90;;
68995;SDS011;56056;48.990;12.146;2023-11-21T00:52:57;1999.90;;;999.90;;
68995;SDS011;56056;48.990;12.146;2023-11-21T00:55:22;1999.90;;;999.90;;
68995;SDS011;56056;48.990;12.146;2023-11-21T00:57:50;1999.90;;;999.90;;
68995;SDS011;56056;48.990;12.146;2023-11-21T01:00:16;1999.90;;;999.90;;
68995;SDS011;56056;48.990;12.146;2023-11-21T01:02:43;1999.90;;;999.90;;
68995;SDS011;56056;48.990;12.146;2023-11-21T01:05:13;1999.90;;;999.90;;
68995;SDS011;56056;48.990;12.146;2023-11-21T01:07:40;1999.90;;;999.90;;
68995;SDS011;56056;48.990;12.146;2023-11-21T01:10:06;1999.90;;;999.90;;
68995;SDS011;56056;48.990;12.146;2023-11-21T01:12:34;1999.90;;;999.90;;
68995;SDS011;56056;48.990;12.146;2023-11-21T01:15:01;1999.90;;;999.90;;
68995;SDS011;56056;48.990;12.146;2023-11-21T01:17:28;1999.90;;;999.90;;
68995;SDS011;56056;48.990;12.146;2023-11-21T01:19:54;1999.90;;;999.90;;
68995;SDS011;56056;48.990;12.146;2023-11-21T01:22:21;1999.90;;;999.90;;
68995;SDS011;56056;48.990;12.146;2023-11-21T01:24:52;1999.90;;;999.90;;
68995;SDS011;56056;48.990;12.146;2023-11-21T01:27:18;1999.90;;;999.90;;
68995;SDS011;56056;48.990;12.146;2023-11-21T01:29:44;1999.90;;;999.90;;
68995;SDS011;56056;48.990;12.146;2023-11-21T01:32:10;1999.90;;;999.90;;
68995;SDS011;56056;48.990;12.146;2023-11-21T01:34:36;1999.90;;;999.90;;
68995;SDS011;56056;48.990;12.146;2023-11-21T01:37:02;1999.90;;;999.90;;
68995;SDS011;56056;48.990;12.146;2023-11-21T01:39:30;1999.90;;;999.90;;
68995;SDS011;56056;48.990;12.146;2023-11-21T01:41:57;1999.90;;;999.90;;
68995;SDS011;56056;48.990;12.146;2023-11-21T01:44:23;1999.90;;;999.90;;
68995;SDS011;56056;48.990;12.146;2023-11-21T01:46:49;1999.90;;;999.90;;
68995;SDS011;56056;48.990;12.146;2023-11-21T01:49:16;1999.90;;;999.90;;
68995;SDS011;56056;48.990;12.146;2023-11-21T01:51:43;1999.90;;;999.90;;
68995;SDS011;56056;48.990;12.146;2023-11-21T01:54:12;1999.90;;;999.90;;
68995;SDS011;56056;48.990;12.146;2023-11-21T01:56:38;1999.90;;;999.90;;
68995;SDS011;56056;48.990;12.146;2023-11-21T01:59:06;1999.90;;;999.90;;
68995;SDS011;56056;48.990;12.146;2023-11-21T02:01:32;1999.90;;;999.90;;
68995;SDS011;56056;48.990;12.146;2023-11-21T02:03:58;1999.90;;;999.90;;
68995;SDS011;56056;48.990;12.146;2023-11-21T02:06:24;1999.90;;;999.90;;
68995;SDS011;56056;48.990;12.146;2023-11-21T02:08:50;1999.90;;;999.90;;
68995;SDS011;56056;48.990;12.146;2023-11-21T02:11:16;1999.90;;;999.90;;
68995;SDS011;56056;48.990;12.146;2023-11-21T02:13:44;1999.90;;;999.90;;
68995;SDS011;56056;48.990;12.146;2023-11-21T02:16:13;1999.90;;;999.90;;
68995;SDS011;56056;48.990;12.146;2023-11-21T02:18:39;1999.90;;;999.90;;
68995;SDS011;56056;48.990;12.146;2023-11-21T02:21:06;1999.90;;;999.90;;
68995;SDS011;56056;48.990;12.146;2023-11-21T02:23:34;1999.90;;;999.90;;
68995;SDS011;56056;48.990;12.146;2023-11-21T02:26:00;1999.90;;;999.90;;
68995;SDS011;56056;48.990;12.146;2023-11-21T02:28:29;1999.90;;;999.90;;
68995;SDS011;56056;48.990;12.146;2023-11-21T02:30:55;1999.90;;;999.90;;
68995;SDS011;56056;48.990;12.146;2023-11-21T02:33:22;1999.90;;;999.90;;
68995;SDS011;56056;48.990;12.146;2023-11-21T02:35:48;1999.90;;;999.90;;
68995;SDS011;56056;48.990;12.146;2023-11-21T02:38:14;1999.90;;;999.90;;
68995;SDS011;56056;48.990;12.146;2023-11-21T02:40:42;1999.90;;;999.90;;
68995;SDS011;56056;48.990;12.146;2023-11-21T02:43:08;1999.90;;;999.90;;
68995;SDS011;56056;48.990;12.146;2023-11-21T02:45:34;1999.90;;;999.90;;
68995;SDS011;56056;48.990;12.146;2023-11-21T02:47:59;1999.90;;;999.90;;
68995;SDS011;56056;48.990;12.146;2023-11-21T02:50:25;1999.90;;;999.90;;
68995;SDS011;56056;48.990;12.146;2023-11-21T02:52:52;1999.90;;;999.90;;
68995;SDS011;56056;48.990;12.146;2023-11-21T02:55:17;1999.90;;;999.90;;
68995;SDS011;56056;48.990;12.146;2023-11-21T02:57:45;1999.90;;;999.90;;
68995;SDS011;56056;48.990;12.146;2023-11-21T03:00:11;1999.90;;;999.90;;
68995;SDS011;56056;48.990;12.146;2023-11-21T03:02:39;1999.90;;;999.90;;
68995;SDS011;56056;48.990;12.146;2023-11-21T03:05:06;1999.90;;;999.90;;
68995;SDS011;56056;48.990;12.146;2023-11-21T03:07:34;1999.90;;;999.90;;
68995;SDS011;56056;48.990;12.146;2023-11-21T03:10:00;1999.90;;;999.90;;
68995;SDS011;56056;48.990;12.146;2023-11-21T03:12:26;1999.90;;;999.90;;
68995;SDS011;56056;48.990;12.146;2023-11-21T03:14:53;1999.90;;;999.90;;
68995;SDS011;56056;48.990;12.146;2023-11-21T03:17:19;1999.90;;;999.90;;
68995;SDS011;56056;48.990;12.146;2023-11-21T03:19:45;1999.90;;;999.90;;
68995;SDS011;56056;48.990;12.146;2023-11-21T03:22:11;1999.90;;;999.90;;
68995;SDS011;56056;48.990;12.146;2023-11-21T03:24:37;1999.90;;;999.90;;
68995;SDS011;56056;48.990;12.146;2023-11-21T03:27:03;1999.90;;;999.90;;
68995;SDS011;56056;48.990;12.146;2023-11-21T03:29:29;1999.90;;;999.90;;
68995;SDS011;56056;48.990;12.146;2023-11-21T03:31:56;1999.90;;;999.90;;
68995;SDS011;56056;48.990;12.146;2023-11-21T03:34:23;1999.90;;;999.90;;
68995;SDS011;56056;48.990;12.146;2023-11-21T03:36:52;1999.90;;;999.90;;
68995;SDS011;56056;48.990;12.146;2023-11-21T03:39:19;1999.90;;;999.90;;
68995;SDS011;56056;48.990;12.146;2023-11-21T03:41:45;1999.90;;;999.90;;
68995;SDS011;56056;48.990;12.146;2023-11-21T03:44:11;1978.07;;;999.90;;
68995;SDS011;56056;48.990;12.146;2023-11-21T03:46:38;1999.90;;;999.90;;
68995;SDS011;56056;48.990;12.146;2023-11-21T03:49:05;1949.07;;;999.90;;
68995;SDS011;56056;48.990;12.146;2023-11-21T03:51:31;1999.90;;;999.90;;
68995;SDS011;56056;48.990;12.146;2023-11-21T03:53:59;1982.72;;;999.90;;
68995;SDS011;56056;48.990;12.146;2023-11-21T03:56:24;1994.53;;;999.90;;
68995;SDS011;56056;48.990;12.146;2023-11-21T03:58:50;1893.82;;;999.90;;
68995;SDS011;56056;48.990;12.146;2023-11-21T04:01:20;1957.15;;;999.90;;
68995;SDS011;56056;48.990;12.146;2023-11-21T04:03:46;1999.90;;;999.90;;
68995;SDS011;56056;48.990;12.146;2023-11-21T04:06:14;1941.80;;;999.90;;
68995;SDS011;56056;48.990;12.146;2023-11-21T04:08:40;1996.97;;;999.90;;
68995;SDS011;56056;48.990;12.146;2023-11-21T04:11:05;1892.03;;;999.90;;
68995;SDS011;56056;48.990;12.146;2023-11-21T04:13:31;1940.13;;;999.90;;
68995;SDS011;56056;48.990;12.146;2023-11-21T04:15:57;1868.30;;;999.90;;
68995;SDS011;56056;48.990;12.146;2023-11-21T04:18:23;1745.07;;;998.25;;
68995;SDS011;56056;48.990;12.146;2023-11-21T04:20:49;1762.65;;;999.90;;
68995;SDS011;56056;48.990;12.146;2023-11-21T04:23:16;1789.20;;;999.90;;
68995;SDS011;56056;48.990;12.146;2023-11-21T04:25:42;1607.45;;;886.63;;
68995;SDS011;56056;48.990;12.146;2023-11-21T04:28:08;1739.72;;;999.90;;
68995;SDS011;56056;48.990;12.146;2023-11-21T04:30:34;1840.65;;;999.90;;
68995;SDS011;56056;48.990;12.146;2023-11-21T04:33:00;1821.35;;;999.90;;
68995;SDS011;56056;48.990;12.146;2023-11-21T04:35:26;1691.85;;;999.90;;
68995;SDS011;56056;48.990;12.146;2023-11-21T04:37:52;1861.18;;;999.90;;
68995;SDS011;56056;48.990;12.146;2023-11-21T04:40:19;1840.28;;;999.90;;
68995;SDS011;56056;48.990;12.146;2023-11-21T04:42:45;1799.88;;;999.90;;
68995;SDS011;56056;48.990;12.146;2023-11-21T04:45:11;1594.10;;;926.90;;
68995;SDS011;56056;48.990;12.146;2023-11-21T04:47:37;1807.45;;;999.90;;
68995;SDS011;56056;48.990;12.146;2023-11-21T04:50:03;1869.80;;;999.90;;
68995;SDS011;56056;48.990;12.146;2023-11-21T04:52:31;1766.22;;;999.90;;
68995;SDS011;56056;48.990;12.146;2023-11-21T04:54:58;1688.30;;;999.90;;
68995;SDS011;56056;48.990;12.146;2023-11-21T04:57:27;1736.93;;;999.90;;
68995;SDS011;56056;48.990;12.146;2023-11-21T04:59:56;1848.63;;;999.90;;
68995;SDS011;56056;48.990;12.146;2023-11-21T05:02:22;1756.72;;;999.90;;
68995;SDS011;56056;48.990;12.146;2023-11-21T05:04:48;1661.03;;;999.90;;
68995;SDS011;56056;48.990;12.146;2023-11-21T05:07:14;1845.32;;;999.90;;
68995;SDS011;56056;48.990;12.146;2023-11-21T05:09:41;1753.43;;;999.90;;
68995;SDS011;56056;48.990;12.146;2023-11-21T05:12:09;1751.53;;;999.90;;
68995;SDS011;56056;48.990;12.146;2023-11-21T05:14:37;1963.10;;;999.90;;
68995;SDS011;56056;48.990;12.146;2023-11-21T05:17:03;1997.97;;;999.90;;
68995;SDS011;56056;48.990;12.146;2023-11-21T05:19:29;1999.90;;;999.90;;
68995;SDS011;56056;48.990;12.146;2023-11-21T05:21:55;1999.90;;;999.90;;
68995;SDS011;56056;48.990;12.146;2023-11-21T05:24:21;1933.88;;;999.90;;
68995;SDS011;56056;48.990;12.146;2023-11-21T05:26:46;1885.18;;;999.90;;
68995;SDS011;56056;48.990;12.146;2023-11-21T05:29:12;1901.95;;;999.90;;
68995;SDS011;56056;48.990;12.146;2023-11-21T05:31:39;1919.90;;;999.90;;
68995;SDS011;56056;48.990;12.146;2023-11-21T05:34:05;1986.30;;;999.90;;
68995;SDS011;56056;48.990;12.146;2023-11-21T05:36:31;1801.07;;;999.90;;
68995;SDS011;56056;48.990;12.146;2023-11-21T05:38:57;1891.03;;;999.90;;
68995;SDS011;56056;48.990;12.146;2023-11-21T05:41:23;1803.93;;;999.90;;
68995;SDS011;56056;48.990;12.146;2023-11-21T05:43:49;1965.57;;;999.90;;
68995;SDS011;56056;48.990;12.146;2023-11-21T05:46:14;1893.18;;;999.90;;
68995;SDS011;56056;48.990;12.146;2023-11-21T05:48:42;1936.68;;;999.90;;
68995;SDS011;56056;48.990;12.146;2023-11-21T05:51:07;1999.90;;;999.90;;
68995;SDS011;56056;48.990;12.146;2023-11-21T05:53:33;1999.90;;;999.90;;
68995;SDS011;56056;48.990;12.146;2023-11-21T05:55:59;1999.90;;;999.90;;
68995;SDS011;56056;48.990;12.146;2023-11-21T05:58:25;1999.90;;;999.90;;
68995;SDS011;56056;48.990;12.146;2023-11-21T06:00:51;1999.90;;;999.90;;
68995;SDS011;56056;48.990;12.146;2023-11-21T06:03:17;1999.90;;;999.90;;
68995;SDS011;56056;48.990;12.146;2023-11-21T06:05:45;1999.90;;;999.90;;
68995;SDS011;56056;48.990;12.146;2023-11-21T06:08:10;1999.90;;;999.90;;
68995;SDS011;56056;48.990;12.146;2023-11-21T06:10:36;1999.90;;;999.90;;
68995;SDS011;56056;48.990;12.146;2023-11-21T06:13:02;1999.90;;;999.90;;
68995;SDS011;56056;48.990;12.146;2023-11-21T06:15:29;1999.90;;;999.90;;
68995;SDS011;56056;48.990;12.146;2023-11-21T06:17:55;1999.90;;;999.90;;
68995;SDS011;56056;48.990;12.146;2023-11-21T06:20:21;1999.90;;;999.90;;
68995;SDS011;56056;48.990;12.146;2023-11-21T06:22:49;1927.53;;;999.90;;
68995;SDS011;56056;48.990;12.146;2023-11-21T06:25:15;1999.90;;;999.90;;
68995;SDS011;56056;48.990;12.146;2023-11-21T06:27:42;1999.90;;;999.90;;
68995;SDS011;56056;48.990;12.146;2023-11-21T06:30:11;1999.90;;;999.90;;
68995;SDS011;56056;48.990;12.146;2023-11-21T06:32:38;1999.90;;;999.90;;
68995;SDS011;56056;48.990;12.146;2023-11-21T06:35:05;1999.90;;;999.90;;
68995;SDS011;56056;48.990;12.146;2023-11-21T06:37:33;1999.90;;;999.90;;
68995;SDS011;56056;48.990;12.146;2023-11-21T06:40:00;1999.90;;;999.90;;
68995;SDS011;56056;48.990;12.146;2023-11-21T06:42:28;1999.90;;;999.90;;
68995;SDS011;56056;48.990;12.146;2023-11-21T06:44:55;1999.90;;;999.90;;
68995;SDS011;56056;48.990;12.146;2023-11-21T06:47:22;1999.90;;;999.90;;
68995;SDS011;56056;48.990;12.146;2023-11-21T06:49:51;1999.90;;;999.90;;
68995;SDS011;56056;48.990;12.146;2023-11-21T06:52:17;1999.90;;;999.90;;
68995;SDS011;56056;48.990;12.146;2023-11-21T06:54:44;1999.90;;;999.90;;
68995;SDS011;56056;48.990;12.146;2023-11-21T06:57:11;1999.90;;;999.90;;
68995;SDS011;56056;48.990;12.146;2023-11-21T06:59:37;1999.90;;;999.90;;
68995;SDS011;56056;48.990;12.146;2023-11-21T07:02:03;1999.90;;;999.90;;
68995;SDS011;56056;48.990;12.146;2023-11-21T07:04:31;1999.90;;;999.90;;
68995;SDS011;56056;48.990;12.146;2023-11-21T07:06:57;1999.90;;;999.90;;
68995;SDS011;56056;48.990;12.146;2023-11-21T07:09:23;1999.90;;;999.90;;
68995;SDS011;56056;48.990;12.146;2023-11-21T07:11:50;1999.90;;;999.90;;
68995;SDS011;56056;48.990;12.146;2023-11-21T07:14:18;1999.90;;;999.90;;
68995;SDS011;56056;48.990;12.146;2023-11-21T07:16:44;1999.90;;;999.90;;
68995;SDS011;56056;48.990;12.146;2023-11-21T07:19:11;1999.90;;;999.90;;
68995;SDS011;56056;48.990;12.146;2023-11-21T07:21:38;1999.90;;;999.90;;
68995;SDS011;56056;48.990;12.146;2023-11-21T07:24:04;1999.90;;;999.90;;
68995;SDS011;56056;48.990;12.146;2023-11-21T07:26:32;1999.90;;;999.90;;
68995;SDS011;56056;48.990;12.146;2023-11-21T07:28:59;1999.90;;;999.90;;
68995;SDS011;56056;48.990;12.146;2023-11-21T07:31:26;1999.90;;;999.90;;
68995;SDS011;56056;48.990;12.146;2023-11-21T07:33:52;1999.90;;;999.90;;
68995;SDS011;56056;48.990;12.146;2023-11-21T07:36:18;1999.90;;;999.90;;
68995;SDS011;56056;48.990;12.146;2023-11-21T07:38:47;1999.90;;;999.90;;
68995;SDS011;56056;48.990;12.146;2023-11-21T07:41:14;1999.90;;;999.90;;
68995;SDS011;56056;48.990;12.146;2023-11-21T07:43:42;1999.90;;;999.90;;
68995;SDS011;56056;48.990;12.146;2023-11-21T07:46:09;1999.90;;;999.90;;
68995;SDS011;56056;48.990;12.146;2023-11-21T07:48:38;1999.90;;;999.90;;
68995;SDS011;56056;48.990;12.146;2023-11-21T07:51:05;1999.90;;;999.90;;
68995;SDS011;56056;48.990;12.146;2023-11-21T07:53:34;1999.90;;;999.90;;
68995;SDS011;56056;48.990;12.146;2023-11-21T07:56:02;1999.90;;;999.90;;
68995;SDS011;56056;48.990;12.146;2023-11-21T07:58:30;1999.90;;;999.90;;
68995;SDS011;56056;48.990;12.146;2023-11-21T08:00:58;1999.90;;;999.90;;
68995;SDS011;56056;48.990;12.146;2023-11-21T08:03:24;1999.90;;;999.90;;
68995;SDS011;56056;48.990;12.146;2023-11-21T08:05:53;1999.90;;;999.90;;
68995;SDS011;56056;48.990;12.146;2023-11-21T08:08:19;1999.90;;;999.90;;
68995;SDS011;56056;48.990;12.146;2023-11-21T08:10:44;1999.90;;;999.90;;
68995;SDS011;56056;48.990;12.146;2023-11-21T08:13:21;1991.45;;;999.90;;
68995;SDS011;56056;48.990;12.146;2023-11-21T08:15:47;1979.30;;;999.90;;
68995;SDS011;56056;48.990;12.146;2023-11-21T08:18:13;1999.90;;;999.90;;
68995;SDS011;56056;48.990;12.146;2023-11-21T08:20:39;1999.90;;;999.90;;
68995;SDS011;56056;48.990;12.146;2023-11-21T08:23:07;1999.90;;;999.90;;
68995;SDS011;56056;48.990;12.146;2023-11-21T08:25:33;1922.68;;;999.90;;
68995;SDS011;56056;48.990;12.146;2023-11-21T08:27:59;1884.70;;;999.90;;
68995;SDS011;56056;48.990;12.146;2023-11-21T08:30:26;1952.30;;;999.90;;
68995;SDS011;56056;48.990;12.146;2023-11-21T08:32:55;1999.90;;;999.90;;
68995;SDS011;56056;48.990;12.146;2023-11-21T08:35:23;1999.90;;;999.90;;
68995;SDS011;56056;48.990;12.146;2023-11-21T08:37:50;1999.90;;;999.90;;
68995;SDS011;56056;48.990;12.146;2023-11-21T08:40:19;1999.90;;;999.90;;
68995;SDS011;56056;48.990;12.146;2023-11-21T08:42:46;1999.90;;;999.90;;
68995;SDS011;56056;48.990;12.146;2023-11-21T08:45:13;1999.90;;;999.90;;
68995;SDS011;56056;48.990;12.146;2023-11-21T08:47:39;1999.90;;;999.90;;
68995;SDS011;56056;48.990;12.146;2023-11-21T08:50:05;1999.90;;;999.90;;
68995;SDS011;56056;48.990;12.146;2023-11-21T08:52:32;1999.90;;;999.90;;
68995;SDS011;56056;48.990;12.146;2023-11-21T08:54:58;1999.90;;;999.90;;
68995;SDS011;56056;48.990;12.146;2023-11-21T08:57:29;1999.90;;;999.90;;
68995;SDS011;56056;48.990;12.146;2023-11-21T08:59:55;1999.90;;;999.90;;
68995;SDS011;56056;48.990;12.146;2023-11-21T09:02:20;1999.90;;;999.90;;
68995;SDS011;56056;48.990;12.146;2023-11-21T09:04:48;1999.90;;;999.90;;
68995;SDS011;56056;48.990;12.146;2023-11-21T09:07:14;1999.90;;;999.90;;
68995;SDS011;56056;48.990;12.146;2023-11-21T09:09:40;1999.90;;;999.90;;
68995;SDS011;56056;48.990;12.146;2023-11-21T09:12:06;1999.90;;;999.90;;
68995;SDS011;56056;48.990;12.146;2023-11-21T09:14:34;1999.90;;;999.90;;
68995;SDS011;56056;48.990;12.146;2023-11-21T09:17:00;1999.90;;;999.90;;
68995;SDS011;56056;48.990;12.146;2023-11-21T09:19:25;1999.90;;;999.90;;
68995;SDS011;56056;48.990;12.146;2023-11-21T09:21:51;1999.90;;;999.90;;
68995;SDS011;56056;48.990;12.146;2023-11-21T09:24:17;1999.90;;;999.90;;
68995;SDS011;56056;48.990;12.146;2023-11-21T09:26:43;1999.90;;;999.90;;
68995;SDS011;56056;48.990;12.146;2023-11-21T09:29:10;1999.90;;;999.90;;
68995;SDS011;56056;48.990;12.146;2023-11-21T09:31:37;1999.90;;;999.90;;
68995;SDS011;56056;48.990;12.146;2023-11-21T09:34:03;1999.90;;;999.90;;
68995;SDS011;56056;48.990;12.146;2023-11-21T09:36:31;1999.90;;;999.90;;
68995;SDS011;56056;48.990;12.146;2023-11-21T09:38:58;1999.90;;;999.90;;
68995;SDS011;56056;48.990;12.146;2023-11-21T09:41:29;1999.90;;;999.90;;
68995;SDS011;56056;48.990;12.146;2023-11-21T09:44:02;1999.90;;;999.90;;
68995;SDS011;56056;48.990;12.146;2023-11-21T09:46:32;1999.90;;;999.90;;
68995;SDS011;56056;48.990;12.146;2023-11-21T09:49:00;1999.90;;;999.90;;
68995;SDS011;56056;48.990;12.146;2023-11-21T09:51:30;1999.90;;;999.90;;
68995;SDS011;56056;48.990;12.146;2023-11-21T09:53:58;1999.90;;;999.90;;
68995;SDS011;56056;48.990;12.146;2023-11-21T09:56:26;1999.90;;;999.90;;
68995;SDS011;56056;48.990;12.146;2023-11-21T09:58:55;1999.90;;;999.90;;
68995;SDS011;56056;48.990;12.146;2023-11-21T10:01:22;1999.90;;;999.90;;
68995;SDS011;56056;48.990;12.146;2023-11-21T10:03:50;1999.90;;;999.90;;
68995;SDS011;56056;48.990;12.146;2023-11-21T10:06:17;1999.90;;;999.90;;
68995;SDS011;56056;48.990;12.146;2023-11-21T10:08:43;1999.90;;;999.90;;
68995;SDS011;56056;48.990;12.146;2023-11-21T10:11:10;1999.90;;;999.90;;
68995;SDS011;56056;48.990;12.146;2023-11-21T10:13:37;1999.90;;;999.90;;
68995;SDS011;56056;48.990;12.146;2023-11-21T10:16:06;1999.90;;;999.90;;
68995;SDS011;56056;48.990;12.146;2023-11-21T10:18:36;1999.90;;;999.90;;
68995;SDS011;56056;48.990;12.146;2023-11-21T10:21:05;1999.90;;;999.90;;
68995;SDS011;56056;48.990;12.146;2023-11-21T10:23:33;1999.90;;;999.90;;
68995;SDS011;56056;48.990;12.146;2023-11-21T10:25:59;1999.90;;;999.90;;
68995;SDS011;56056;48.990;12.146;2023-11-21T10:28:25;1999.90;;;999.90;;
68995;SDS011;56056;48.990;12.146;2023-11-21T10:30:51;1999.90;;;999.90;;
68995;SDS011;56056;48.990;12.146;2023-11-21T10:33:17;1999.90;;;999.90;;
68995;SDS011;56056;48.990;12.146;2023-11-21T10:35:53;1999.90;;;999.90;;
68995;SDS011;56056;48.990;12.146;2023-11-21T10:38:20;1999.90;;;999.90;;
68995;SDS011;56056;48.990;12.146;2023-11-21T10:40:49;1999.90;;;999.90;;
68995;SDS011;56056;48.990;12.146;2023-11-21T10:43:16;1999.90;;;999.90;;
68995;SDS011;56056;48.990;12.146;2023-11-21T10:45:43;1999.90;;;999.90;;
68995;SDS011;56056;48.990;12.146;2023-11-21T10:48:10;1994.30;;;999.90;;
68995;SDS011;56056;48.990;12.146;2023-11-21T10:50:40;1966.35;;;999.90;;
68995;SDS011;56056;48.990;12.146;2023-11-21T10:53:07;1999.90;;;999.90;;
68995;SDS011;56056;48.990;12.146;2023-11-21T10:55:33;1999.90;;;999.90;;
68995;SDS011;56056;48.990;12.146;2023-11-21T10:58:01;1999.90;;;999.90;;
68995;SDS011;56056;48.990;12.146;2023-11-21T11:00:30;1914.28;;;999.90;;
68995;SDS011;56056;48.990;12.146;2023-11-21T11:02:58;1999.90;;;999.90;;
68995;SDS011;56056;48.990;12.146;2023-11-21T11:05:26;1998.32;;;999.90;;
68995;SDS011;56056;48.990;12.146;2023-11-21T11:07:58;1999.90;;;999.90;;
68995;SDS011;56056;48.990;12.146;2023-11-21T11:10:27;1999.90;;;999.90;;
68995;SDS011;56056;48.990;12.146;2023-11-21T11:12:57;1986.40;;;999.90;;
68995;SDS011;56056;48.990;12.146;2023-11-21T11:15:25;1977.65;;;999.90;;
68995;SDS011;56056;48.990;12.146;2023-11-21T11:17:52;1929.43;;;999.90;;
68995;SDS011;56056;48.990;12.146;2023-11-21T11:20:23;1999.50;;;999.90;;
68995;SDS011;56056;48.990;12.146;2023-11-21T11:22:56;1925.38;;;999.90;;
68995;SDS011;56056;48.990;12.146;2023-11-21T11:25:45;1958.00;;;999.90;;
68995;SDS011;56056;48.990;12.146;2023-11-21T11:28:29;1960.97;;;999.90;;
68995;SDS011;56056;48.990;12.146;2023-11-21T11:31:11;1892.82;;;999.90;;
68995;SDS011;56056;48.990;12.146;2023-11-21T11:33:52;1747.28;;;999.90;;
68995;SDS011;56056;48.990;12.146;2023-11-21T11:36:25;1571.70;;;999.90;;
68995;SDS011;56056;48.990;12.146;2023-11-21T11:38:56;1618.78;;;999.90;;
68995;SDS011;56056;48.990;12.146;2023-11-21T11:41:25;1585.55;;;999.90;;
68995;SDS011;56056;48.990;12.146;2023-11-21T11:43:54;1509.45;;;999.90;;
68995;SDS011;56056;48.990;12.146;2023-11-21T11:46:22;1529.18;;;999.90;;
68995;SDS011;56056;48.990;12.146;2023-11-21T11:49:06;1502.07;;;999.90;;
68995;SDS011;56056;48.990;12.146;2023-11-21T11:51:33;1538.78;;;999.90;;
68995;SDS011;56056;48.990;12.146;2023-11-21T11:54:01;1663.72;;;999.90;;
68995;SDS011;56056;48.990;12.146;2023-11-21T11:56:27;1685.85;;;999.90;;
68995;SDS011;56056;48.990;12.146;2023-11-21T11:59:00;1705.85;;;999.90;;
68995;SDS011;56056;48.990;12.146;2023-11-21T12:01:29;1778.28;;;999.90;;
68995;SDS011;56056;48.990;12.146;2023-11-21T12:06:51;1761.40;;;999.90;;
68995;SDS011;56056;48.990;12.146;2023-11-21T12:09:18;1809.32;;;999.90;;
68995;SDS011;56056;48.990;12.146;2023-11-21T12:11:45;1874.50;;;999.90;;
68995;SDS011;56056;48.990;12.146;2023-11-21T12:14:12;1947.95;;;999.90;;
68995;SDS011;56056;48.990;12.146;2023-11-21T12:16:40;1887.68;;;999.90;;
68995;SDS011;56056;48.990;12.146;2023-11-21T12:19:07;1862.70;;;999.90;;
68995;SDS011;56056;48.990;12.146;2023-11-21T12:21:34;1859.15;;;999.90;;
68995;SDS011;56056;48.990;12.146;2023-11-21T12:24:01;1953.72;;;999.90;;
68995;SDS011;56056;48.990;12.146;2023-11-21T12:26:28;1935.90;;;999.90;;
68995;SDS011;56056;48.990;12.146;2023-11-21T12:28:54;1891.35;;;999.90;;
68995;SDS011;56056;48.990;12.146;2023-11-21T12:31:22;1864.97;;;999.90;;
68995;SDS011;56056;48.990;12.146;2023-11-21T12:33:50;1850.60;;;999.90;;
68995;SDS011;56056;48.990;12.146;2023-11-21T12:36:17;1845.90;;;999.90;;
68995;SDS011;56056;48.990;12.146;2023-11-21T12:38:42;1871.13;;;999.90;;
68995;SDS011;56056;48.990;12.146;2023-11-21T12:41:09;1697.07;;;999.90;;
68995;SDS011;56056;48.990;12.146;2023-11-21T12:43:37;1767.68;;;999.90;;
68995;SDS011;56056;48.990;12.146;2023-11-21T12:46:04;1733.20;;;999.90;;
68995;SDS011;56056;48.990;12.146;2023-11-21T12:48:31;1741.68;;;999.90;;
68995;SDS011;56056;48.990;12.146;2023-11-21T12:50:59;1699.00;;;999.90;;
68995;SDS011;56056;48.990;12.146;2023-11-21T12:53:27;1706.03;;;999.90;;
68995;SDS011;56056;48.990;12.146;2023-11-21T12:56:01;1663.68;;;999.90;;
68995;SDS011;56056;48.990;12.146;2023-11-21T12:58:34;1667.32;;;999.90;;
68995;SDS011;56056;48.990;12.146;2023-11-21T13:01:00;1718.65;;;999.90;;
68995;SDS011;56056;48.990;12.146;2023-11-21T13:03:30;1778.15;;;999.90;;
68995;SDS011;56056;48.990;12.146;2023-11-21T13:05:59;1754.72;;;999.90;;
68995;SDS011;56056;48.990;12.146;2023-11-21T13:08:26;1797.88;;;999.90;;
68995;SDS011;56056;48.990;12.146;2023-11-21T13:10:53;1804.18;;;999.90;;
68995;SDS011;56056;48.990;12.146;2023-11-21T13:13:21;1845.28;;;999.90;;
68995;SDS011;56056;48.990;12.146;2023-11-21T13:15:49;1922.05;;;999.90;;
68995;SDS011;56056;48.990;12.146;2023-11-21T13:18:16;1889.13;;;999.90;;
68995;SDS011;56056;48.990;12.146;2023-11-21T13:20:42;1894.53;;;999.90;;
68995;SDS011;56056;48.990;12.146;2023-11-21T13:23:10;1878.85;;;999.90;;
68995;SDS011;56056;48.990;12.146;2023-11-21T13:25:41;1826.60;;;999.90;;
68995;SDS011;56056;48.990;12.146;2023-11-21T13:28:08;1998.15;;;999.90;;
68995;SDS011;56056;48.990;12.146;2023-11-21T13:30:36;1933.28;;;999.90;;
68995;SDS011;56056;48.990;12.146;2023-11-21T13:33:05;1978.75;;;999.90;;
68995;SDS011;56056;48.990;12.146;2023-11-21T13:35:33;1975.07;;;999.90;;
68995;SDS011;56056;48.990;12.146;2023-11-21T13:38:07;1933.97;;;999.90;;